createdAt,value
2018-12-13T00:00:12.110Z,98598.13
2018-12-13T00:05:17.394Z,98599.37
2018-12-13T00:10:20.815Z,98604.89
2018-12-13T00:15:30.445Z,98611.42
2018-12-13T00:20:33.951Z,98611.95
2018-12-13T00:25:38.011Z,98612.15
2018-12-13T00:30:41.500Z,98621.70
2018-12-13T00:35:44.794Z,98631.14
2018-12-13T00:40:47.987Z,98638.19
2018-12-13T00:45:51.211Z,98631.64
2018-12-13T00:50:54.575Z,98635.34
2018-12-13T00:55:57.928Z,98639.55
2018-12-13T01:01:01.252Z,98639.20
2018-12-13T01:06:05.134Z,98634.63
2018-12-13T01:11:08.306Z,98622.34
2018-12-13T01:21:31.566Z,98627.10
2018-12-13T01:26:34.823Z,98624.05
2018-12-13T01:31:38.249Z,98621.47
2018-12-13T01:36:41.525Z,98625.77
2018-12-13T01:41:44.811Z,98627.70
2018-12-13T01:46:48.055Z,98624.77
2018-12-13T01:51:51.357Z,98631.25
2018-12-13T01:56:54.732Z,98638.39
2018-12-13T02:01:57.933Z,98644.17
2018-12-13T02:07:01.208Z,98641.23
2018-12-13T02:12:04.524Z,98645.32
2018-12-13T02:17:08.172Z,98638.29
2018-12-13T02:22:11.534Z,98638.98
2018-12-13T02:27:14.986Z,98636.28
2018-12-13T02:32:18.472Z,98630.05
2018-12-13T02:37:21.689Z,98637.63
2018-12-13T02:42:24.880Z,98646.24
2018-12-13T02:47:28.183Z,98637.42
2018-12-13T02:52:31.539Z,98641.26
2018-12-13T02:57:34.867Z,98637.36
2018-12-13T03:02:38.068Z,98632.03
2018-12-13T03:07:41.365Z,98639.70
2018-12-13T03:12:44.756Z,98653.48
2018-12-13T03:17:48.013Z,98641.94
2018-12-13T03:22:51.263Z,98644.05
2018-12-13T03:27:54.798Z,98641.09
2018-12-13T03:32:57.994Z,98643.98
2018-12-13T03:38:02.279Z,98632.11
2018-12-13T03:43:05.626Z,98630.64
2018-12-13T03:48:08.905Z,98631.92
2018-12-13T03:53:12.150Z,98640.65
2018-12-13T03:58:15.642Z,98638.28
2018-12-13T04:03:25.583Z,98641.80
2018-12-13T04:08:28.857Z,98639.45
2018-12-13T04:13:32.574Z,98635.47
2018-12-13T04:18:37.511Z,98638.90
2018-12-13T04:23:43.117Z,98640.22
2018-12-13T04:28:46.889Z,98657.70
2018-12-13T04:33:50.200Z,98658.91
2018-12-13T04:38:53.346Z,98656.59
2018-12-13T04:43:56.715Z,98663.49
2018-12-13T04:49:00.073Z,98656.26
2018-12-13T04:54:03.452Z,98678.38
2018-12-13T04:59:06.812Z,98666.25
2018-12-13T05:04:10.155Z,98670.23
2018-12-13T05:09:14.363Z,98673.83
2018-12-13T05:14:18.720Z,98670.06
2018-12-13T05:19:22.199Z,98671.69
2018-12-13T05:24:25.355Z,98687.07
2018-12-13T05:29:28.635Z,98689.30
2018-12-13T05:34:31.833Z,98685.23
2018-12-13T05:39:35.140Z,98689.06
2018-12-13T05:44:38.477Z,98696.41
2018-12-13T05:49:41.661Z,98697.59
2018-12-13T05:54:44.897Z,98706.52
2018-12-13T05:59:48.464Z,98702.83
2018-12-13T06:04:51.665Z,98708.64
2018-12-13T06:09:55.075Z,98703.13
2018-12-13T06:14:58.475Z,98704.15
2018-12-13T06:20:01.916Z,98707.78
2018-12-13T06:25:05.522Z,98714.13
2018-12-13T06:30:09.253Z,98707.80
2018-12-13T06:35:12.659Z,98711.52
2018-12-13T06:40:16.684Z,98718.57
2018-12-13T06:45:19.972Z,98717.98
2018-12-13T06:50:23.313Z,98725.67
2018-12-13T06:55:26.622Z,98710.28
2018-12-13T07:00:30.068Z,98711.80
2018-12-13T07:05:33.714Z,98711.17
2018-12-13T07:10:37.109Z,98708.02
2018-12-13T07:15:40.437Z,98712.39
2018-12-13T07:20:43.934Z,98720.59
2018-12-13T07:25:47.187Z,98708.36
2018-12-13T07:30:50.666Z,98708.16
2018-12-13T07:35:54.065Z,98691.06
2018-12-13T07:40:57.417Z,98695.54
2018-12-13T07:46:00.661Z,98689.67
2018-12-13T07:51:04.103Z,98687.53
2018-12-13T07:56:07.502Z,98681.99
2018-12-13T08:01:10.803Z,98679.80
2018-12-13T08:06:14.048Z,98677.58
2018-12-13T08:11:17.339Z,98682.70
2018-12-13T08:16:20.597Z,98677.63
2018-12-13T08:21:26.544Z,98677.06
2018-12-13T08:26:29.758Z,98669.63
2018-12-13T08:31:33.043Z,98671.38
2018-12-13T08:36:36.567Z,98672.53
2018-12-13T08:41:39.762Z,98666.54
2018-12-13T08:46:43.075Z,98658.04
2018-12-13T08:51:46.346Z,98653.23
2018-12-13T08:56:49.778Z,98647.74
2018-12-13T09:01:53.301Z,98644.16
2018-12-13T09:06:57.104Z,98643.51
2018-12-13T09:12:00.680Z,98637.59
2018-12-13T09:17:03.954Z,98632.27
2018-12-13T09:22:07.603Z,98618.75
2018-12-13T09:27:10.872Z,98614.09
2018-12-13T09:32:14.151Z,98606.97
2018-12-13T09:37:17.380Z,98618.27
2018-12-13T09:42:20.538Z,98607.16
2018-12-13T09:47:24.143Z,98606.64
2018-12-13T09:52:27.595Z,98599.39
2018-12-13T09:57:34.568Z,98601.48
2018-12-13T10:02:38.045Z,98600.81
2018-12-13T10:07:41.527Z,98595.74
2018-12-13T10:12:44.766Z,98590.36
2018-12-13T10:17:48.085Z,98585.18
2018-12-13T10:22:51.449Z,98577.95
2018-12-13T10:27:54.908Z,98579.80
2018-12-13T10:32:58.281Z,98578.55
2018-12-13T10:38:01.588Z,98572.62
2018-12-13T10:43:04.835Z,98575.37
2018-12-13T10:48:09.073Z,98565.37
2018-12-13T10:53:12.344Z,98563.46
2018-12-13T10:58:15.624Z,98559.30
2018-12-13T11:03:25.251Z,98556.40
2018-12-13T11:08:28.498Z,98556.28
2018-12-13T11:13:31.780Z,98551.39
2018-12-13T11:18:35.083Z,98545.08
2018-12-13T11:23:38.367Z,98536.52
2018-12-13T11:29:56.730Z,98532.63
2018-12-13T11:35:00.008Z,98526.48
2018-12-13T11:40:03.288Z,98529.86
2018-12-13T11:45:07.924Z,98520.20
2018-12-13T11:50:11.415Z,98518.56
2018-12-13T11:55:34.884Z,98516.42
2018-12-13T12:00:38.310Z,98514.09
2018-12-13T12:05:41.609Z,98517.30
2018-12-13T12:10:45.044Z,98522.44
2018-12-13T12:15:49.498Z,98512.00
2018-12-13T12:20:52.767Z,98517.73
2018-12-13T12:25:56.216Z,98519.70
2018-12-13T12:30:59.637Z,98525.52
2018-12-13T12:36:03.132Z,98522.08
2018-12-13T12:41:07.567Z,98524.06
2018-12-13T12:46:11.609Z,98526.59
2018-12-13T12:51:14.942Z,98530.83
2018-12-13T12:56:18.144Z,98535.65
2018-12-13T13:01:21.508Z,98538.34
2018-12-13T13:06:24.866Z,98540.50
2018-12-13T13:11:28.275Z,98546.88
2018-12-13T13:16:31.587Z,98546.34
2018-12-13T13:21:34.908Z,98548.38
2018-12-13T13:26:38.230Z,98543.28
2018-12-13T13:31:41.570Z,98541.61
2018-12-13T13:36:44.962Z,98549.65
2018-12-13T13:41:48.182Z,98543.37
2018-12-13T13:46:52.842Z,98554.94
2018-12-13T13:51:56.407Z,98548.27
2018-12-13T13:56:59.801Z,98547.39
2018-12-13T14:02:03.209Z,98560.24
2018-12-13T14:07:06.678Z,98563.72
2018-12-13T14:12:09.885Z,98564.67
2018-12-13T14:17:13.158Z,98570.84
2018-12-13T14:22:16.510Z,98572.80
2018-12-13T14:27:21.277Z,98575.55
2018-12-13T14:32:24.522Z,98571.25
2018-12-13T14:37:28.085Z,98576.50
2018-12-13T14:42:31.346Z,98577.60
2018-12-13T14:47:35.812Z,98584.56
2018-12-13T14:52:39.112Z,98586.61
2018-12-13T14:57:42.373Z,98585.88
2018-12-13T15:02:46.203Z,98584.99
2018-12-13T15:07:49.660Z,98590.35
2018-12-13T15:12:53.123Z,98588.78
2018-12-13T15:17:56.751Z,98599.90
2018-12-13T15:23:00.268Z,98588.42
2018-12-13T15:28:03.543Z,98598.50
2018-12-13T15:33:06.801Z,98596.20
2018-12-13T15:38:10.245Z,98605.42
2018-12-13T15:43:13.772Z,98599.17
2018-12-13T15:48:17.322Z,98597.92
2018-12-13T15:53:20.770Z,98597.30
2018-12-13T15:58:24.563Z,98592.33
2018-12-13T16:03:28.496Z,98588.85
2018-12-13T16:08:32.032Z,98589.22
2018-12-13T16:13:35.609Z,98585.92
2018-12-13T16:18:41.057Z,98586.91
2018-12-13T16:23:44.481Z,98588.41
2018-12-13T16:28:48.042Z,98592.05
2018-12-13T16:33:51.617Z,98588.30
2018-12-13T16:38:56.536Z,98589.80
2018-12-13T16:44:00.782Z,98596.94
2018-12-13T16:49:05.393Z,98594.55
2018-12-13T16:54:09.343Z,98595.59
2018-12-13T16:59:14.218Z,98602.52
2018-12-13T17:04:19.694Z,98600.47
2018-12-13T17:09:23.203Z,98593.78
2018-12-13T17:14:26.753Z,98599.67
2018-12-13T17:19:30.573Z,98594.48
2018-12-13T17:24:34.304Z,98597.53
2018-12-13T17:29:37.805Z,98596.38
2018-12-13T17:34:41.592Z,98597.41
2018-12-13T17:39:46.207Z,98594.13
2018-12-13T17:44:50.496Z,98593.78
2018-12-13T17:49:54.374Z,98599.08
2018-12-13T17:54:58.202Z,98611.80
2018-12-13T18:00:02.235Z,98604.27
2018-12-13T18:05:07.828Z,98600.86
2018-12-13T18:10:11.726Z,98596.67
2018-12-13T18:15:15.134Z,98597.13
2018-12-13T18:20:18.487Z,98600.17
2018-12-13T18:25:22.867Z,98603.83
2018-12-13T18:30:26.049Z,98604.52
2018-12-13T18:35:29.534Z,98604.87
2018-12-13T18:40:35.602Z,98607.39
2018-12-13T18:45:38.445Z,98611.13
2018-12-13T18:50:41.733Z,98611.58
2018-12-13T18:55:45.051Z,98601.27
2018-12-13T19:00:48.368Z,98603.52
2018-12-13T19:05:51.819Z,98599.33
2018-12-13T19:10:55.581Z,98602.50
2018-12-13T19:16:01.295Z,98606.48
2018-12-13T19:21:05.004Z,98608.52
2018-12-13T19:26:09.548Z,98603.42
2018-12-13T19:31:12.948Z,98608.41
2018-12-13T19:36:17.213Z,98596.52
2018-12-13T19:41:21.511Z,98600.45
2018-12-13T19:46:25.839Z,98603.53
2018-12-13T19:51:29.201Z,98607.73
2018-12-13T19:56:32.377Z,98607.70
2018-12-13T20:01:40.719Z,98607.27
2018-12-13T20:06:48.751Z,98602.96
2018-12-13T20:11:52.102Z,98611.45
2018-12-13T20:16:55.455Z,98602.61
2018-12-13T20:21:58.721Z,98598.89
2018-12-13T20:27:02.155Z,98590.95
2018-12-13T20:32:05.503Z,98587.23
2018-12-13T20:37:08.701Z,98588.83
2018-12-13T20:42:12.091Z,98599.80
2018-12-13T20:47:15.366Z,98598.20
2018-12-13T20:52:18.882Z,98597.28
2018-12-13T20:57:22.336Z,98589.04
2018-12-13T21:02:25.635Z,98591.06
2018-12-13T21:07:34.651Z,98604.88
2018-12-13T21:12:38.193Z,98603.16
2018-12-13T21:17:41.625Z,98607.94
2018-12-13T21:22:44.976Z,98603.95
2018-12-13T21:27:48.325Z,98609.19
2018-12-13T21:32:53.845Z,98606.80
2018-12-13T21:37:58.350Z,98616.89
2018-12-13T21:43:01.973Z,98613.70
2018-12-13T21:48:05.360Z,98611.91
2018-12-13T21:53:08.644Z,98606.89
2018-12-13T21:58:12.106Z,98611.10
2018-12-13T22:03:15.459Z,98609.77
2018-12-13T22:08:18.644Z,98609.75
2018-12-13T22:13:22.170Z,98601.94
2018-12-13T22:18:25.459Z,98600.70
2018-12-13T22:23:29.763Z,98597.75
2018-12-13T22:28:33.070Z,98586.20
2018-12-13T22:33:36.498Z,98575.33
2018-12-13T22:38:39.796Z,98562.97
2018-12-13T22:43:43.079Z,98562.41
2018-12-13T22:48:46.405Z,98575.34
2018-12-13T22:53:49.576Z,98571.69
2018-12-13T22:58:53.140Z,98573.73
2018-12-13T23:03:56.472Z,98584.61
2018-12-13T23:08:59.727Z,98589.59
2018-12-13T23:14:03.270Z,98593.22
2018-12-13T23:19:06.525Z,98601.48
2018-12-13T23:24:09.907Z,98605.13
2018-12-13T23:29:13.019Z,98592.09
2018-12-13T23:34:17.401Z,98576.23
2018-12-13T23:39:20.906Z,98571.91
2018-12-13T23:44:24.322Z,98594.34
2018-12-13T23:49:27.489Z,98608.36
2018-12-13T23:54:30.731Z,98610.68
2018-12-13T23:59:34.025Z,98619.72
